sensor_id;sensor_type;location;lat;lon;timestamp;temperature;humidity
29501;DHT22;16450;50.288;10.966;2024-03-06T00:01:52;8.10;99.90
29501;DHT22;16450;50.288;10.966;2024-03-06T00:04:54;8.10;99.90
29501;DHT22;16450;50.288;10.966;2024-03-06T00:07:56;8.10;99.90
29501;DHT22;16450;50.288;10.966;2024-03-06T00:10:58;8.10;99.90
29501;DHT22;16450;50.288;10.966;2024-03-06T00:14:00;8.00;99.90
29501;DHT22;16450;50.288;10.966;2024-03-06T00:17:02;8.00;99.90
29501;DHT22;16450;50.288;10.966;2024-03-06T00:20:07;8.00;99.90
29501;DHT22;16450;50.288;10.966;2024-03-06T00:23:10;8.00;99.90
29501;DHT22;16450;50.288;10.966;2024-03-06T00:26:12;8.00;99.90
29501;DHT22;16450;50.288;10.966;2024-03-06T00:29:14;7.90;99.90
29501;DHT22;16450;50.288;10.966;2024-03-06T00:32:16;7.90;99.90
29501;DHT22;16450;50.288;10.966;2024-03-06T00:35:18;7.90;99.90
29501;DHT22;16450;50.288;10.966;2024-03-06T00:38:21;7.90;99.90
29501;DHT22;16450;50.288;10.966;2024-03-06T00:41:23;7.90;99.90
29501;DHT22;16450;50.288;10.966;2024-03-06T00:44:25;7.80;99.90
29501;DHT22;16450;50.288;10.966;2024-03-06T00:47:26;7.80;99.90
29501;DHT22;16450;50.288;10.966;2024-03-06T00:50:29;7.80;99.90
29501;DHT22;16450;50.288;10.966;2024-03-06T00:53:30;7.80;99.90
29501;DHT22;16450;50.288;10.966;2024-03-06T00:56:33;7.80;99.90
29501;DHT22;16450;50.288;10.966;2024-03-06T00:59:38;7.80;99.90
29501;DHT22;16450;50.288;10.966;2024-03-06T01:02:40;7.80;99.90
29501;DHT22;16450;50.288;10.966;2024-03-06T01:05:42;7.80;99.90
29501;DHT22;16450;50.288;10.966;2024-03-06T01:08:44;7.70;99.90
29501;DHT22;16450;50.288;10.966;2024-03-06T01:11:45;7.70;99.90
29501;DHT22;16450;50.288;10.966;2024-03-06T01:14:49;7.70;99.90
29501;DHT22;16450;50.288;10.966;2024-03-06T01:17:51;7.70;99.90
29501;DHT22;16450;50.288;10.966;2024-03-06T01:20:53;7.70;99.90
29501;DHT22;16450;50.288;10.966;2024-03-06T01:23:55;7.60;99.90
29501;DHT22;16450;50.288;10.966;2024-03-06T01:26:57;7.60;99.90
29501;DHT22;16450;50.288;10.966;2024-03-06T01:29:58;7.60;99.90
29501;DHT22;16450;50.288;10.966;2024-03-06T01:33:00;7.50;99.90
29501;DHT22;16450;50.288;10.966;2024-03-06T01:36:02;7.50;99.90
29501;DHT22;16450;50.288;10.966;2024-03-06T01:39:04;7.50;99.90
29501;DHT22;16450;50.288;10.966;2024-03-06T01:42:06;7.50;99.90
29501;DHT22;16450;50.288;10.966;2024-03-06T01:45:08;7.40;99.90
29501;DHT22;16450;50.288;10.966;2024-03-06T01:48:10;7.40;99.90
29501;DHT22;16450;50.288;10.966;2024-03-06T01:51:12;7.40;99.90
29501;DHT22;16450;50.288;10.966;2024-03-06T01:54:14;7.40;99.90
29501;DHT22;16450;50.288;10.966;2024-03-06T01:57:17;7.30;99.90
29501;DHT22;16450;50.288;10.966;2024-03-06T02:00:20;7.30;99.90
29501;DHT22;16450;50.288;10.966;2024-03-06T02:03:22;7.30;99.90
29501;DHT22;16450;50.288;10.966;2024-03-06T02:06:26;7.20;99.90
29501;DHT22;16450;50.288;10.966;2024-03-06T02:09:28;7.20;99.90
29501;DHT22;16450;50.288;10.966;2024-03-06T02:12:30;7.20;99.90
29501;DHT22;16450;50.288;10.966;2024-03-06T02:15:32;7.20;99.90
29501;DHT22;16450;50.288;10.966;2024-03-06T02:18:34;7.10;99.90
29501;DHT22;16450;50.288;10.966;2024-03-06T02:21:35;7.10;99.90
29501;DHT22;16450;50.288;10.966;2024-03-06T02:24:42;7.10;99.90
29501;DHT22;16450;50.288;10.966;2024-03-06T02:27:44;7.20;99.90
29501;DHT22;16450;50.288;10.966;2024-03-06T02:30:50;7.10;99.90
29501;DHT22;16450;50.288;10.966;2024-03-06T02:33:52;7.10;99.90
29501;DHT22;16450;50.288;10.966;2024-03-06T02:36:55;7.10;99.90
29501;DHT22;16450;50.288;10.966;2024-03-06T02:39:56;7.10;99.90
29501;DHT22;16450;50.288;10.966;2024-03-06T02:42:58;7.20;99.90
29501;DHT22;16450;50.288;10.966;2024-03-06T02:46:00;7.20;99.90
29501;DHT22;16450;50.288;10.966;2024-03-06T02:49:02;7.20;99.90
29501;DHT22;16450;50.288;10.966;2024-03-06T02:52:04;7.20;99.90
29501;DHT22;16450;50.288;10.966;2024-03-06T02:55:06;7.20;99.90
29501;DHT22;16450;50.288;10.966;2024-03-06T02:58:08;7.30;99.90
29501;DHT22;16450;50.288;10.966;2024-03-06T03:01:10;7.20;99.90
29501;DHT22;16450;50.288;10.966;2024-03-06T03:04:12;7.30;99.90
29501;DHT22;16450;50.288;10.966;2024-03-06T03:07:14;7.30;99.90
29501;DHT22;16450;50.288;10.966;2024-03-06T03:10:16;7.30;99.90
29501;DHT22;16450;50.288;10.966;2024-03-06T03:13:18;7.30;99.90
29501;DHT22;16450;50.288;10.966;2024-03-06T03:16:20;7.30;99.90
29501;DHT22;16450;50.288;10.966;2024-03-06T03:19:22;7.30;99.90
29501;DHT22;16450;50.288;10.966;2024-03-06T03:22:24;7.30;99.90
29501;DHT22;16450;50.288;10.966;2024-03-06T03:25:26;7.30;99.90
29501;DHT22;16450;50.288;10.966;2024-03-06T03:28:27;7.30;99.90
29501;DHT22;16450;50.288;10.966;2024-03-06T03:31:29;7.30;99.90
29501;DHT22;16450;50.288;10.966;2024-03-06T03:34:36;7.30;99.90
29501;DHT22;16450;50.288;10.966;2024-03-06T03:37:37;7.30;99.90
29501;DHT22;16450;50.288;10.966;2024-03-06T03:40:40;7.30;99.90
29501;DHT22;16450;50.288;10.966;2024-03-06T03:43:42;7.30;99.90
29501;DHT22;16450;50.288;10.966;2024-03-06T03:46:44;7.30;99.90
29501;DHT22;16450;50.288;10.966;2024-03-06T03:49:46;7.30;99.90
29501;DHT22;16450;50.288;10.966;2024-03-06T03:53:07;7.30;99.90
29501;DHT22;16450;50.288;10.966;2024-03-06T03:56:09;7.30;99.90
29501;DHT22;16450;50.288;10.966;2024-03-06T03:59:11;7.30;99.90
29501;DHT22;16450;50.288;10.966;2024-03-06T04:02:13;7.30;99.90
29501;DHT22;16450;50.288;10.966;2024-03-06T04:05:15;7.20;99.90
29501;DHT22;16450;50.288;10.966;2024-03-06T04:08:18;7.20;99.90
29501;DHT22;16450;50.288;10.966;2024-03-06T04:11:20;7.20;99.90
29501;DHT22;16450;50.288;10.966;2024-03-06T04:14:23;7.20;99.90
29501;DHT22;16450;50.288;10.966;2024-03-06T04:17:25;7.20;99.90
29501;DHT22;16450;50.288;10.966;2024-03-06T04:20:27;7.20;99.90
29501;DHT22;16450;50.288;10.966;2024-03-06T04:23:29;7.20;99.90
29501;DHT22;16450;50.288;10.966;2024-03-06T04:26:32;7.20;99.90
29501;DHT22;16450;50.288;10.966;2024-03-06T04:29:34;7.20;99.90
29501;DHT22;16450;50.288;10.966;2024-03-06T04:32:36;7.20;99.90
29501;DHT22;16450;50.288;10.966;2024-03-06T04:35:38;7.20;99.90
29501;DHT22;16450;50.288;10.966;2024-03-06T04:38:40;7.20;99.90
29501;DHT22;16450;50.288;10.966;2024-03-06T04:41:42;7.20;99.90
29501;DHT22;16450;50.288;10.966;2024-03-06T04:44:45;7.20;99.90
29501;DHT22;16450;50.288;10.966;2024-03-06T04:47:47;7.10;99.90
29501;DHT22;16450;50.288;10.966;2024-03-06T04:50:49;7.20;99.90
29501;DHT22;16450;50.288;10.966;2024-03-06T04:53:51;7.10;99.90
29501;DHT22;16450;50.288;10.966;2024-03-06T04:56:53;7.10;99.90
29501;DHT22;16450;50.288;10.966;2024-03-06T04:59:55;7.10;99.90
29501;DHT22;16450;50.288;10.966;2024-03-06T05:02:57;7.10;99.90
29501;DHT22;16450;50.288;10.966;2024-03-06T05:06:16;7.00;99.90
29501;DHT22;16450;50.288;10.966;2024-03-06T05:09:36;7.00;99.90
29501;DHT22;16450;50.288;10.966;2024-03-06T05:12:55;7.00;99.90
29501;DHT22;16450;50.288;10.966;2024-03-06T05:16:14;7.00;99.90
29501;DHT22;16450;50.288;10.966;2024-03-06T05:19:34;7.00;99.90
29501;DHT22;16450;50.288;10.966;2024-03-06T05:22:53;6.90;99.90
29501;DHT22;16450;50.288;10.966;2024-03-06T05:26:13;6.90;99.90
29501;DHT22;16450;50.288;10.966;2024-03-06T05:29:33;6.90;99.90
29501;DHT22;16450;50.288;10.966;2024-03-06T05:32:52;6.90;99.90
29501;DHT22;16450;50.288;10.966;2024-03-06T05:36:11;6.90;99.90
29501;DHT22;16450;50.288;10.966;2024-03-06T05:39:32;6.90;99.90
29501;DHT22;16450;50.288;10.966;2024-03-06T05:42:52;6.90;99.90
29501;DHT22;16450;50.288;10.966;2024-03-06T05:46:11;6.90;99.90
29501;DHT22;16450;50.288;10.966;2024-03-06T05:49:30;6.80;99.90
29501;DHT22;16450;50.288;10.966;2024-03-06T05:52:51;6.80;99.90
29501;DHT22;16450;50.288;10.966;2024-03-06T05:56:10;6.80;99.90
29501;DHT22;16450;50.288;10.966;2024-03-06T05:59:30;6.80;99.90
29501;DHT22;16450;50.288;10.966;2024-03-06T06:02:31;6.80;99.90
29501;DHT22;16450;50.288;10.966;2024-03-06T06:05:39;6.80;99.90
29501;DHT22;16450;50.288;10.966;2024-03-06T06:08:41;6.80;99.90
29501;DHT22;16450;50.288;10.966;2024-03-06T06:11:46;6.80;99.90
29501;DHT22;16450;50.288;10.966;2024-03-06T06:14:49;6.80;99.90
29501;DHT22;16450;50.288;10.966;2024-03-06T06:17:51;6.80;99.90
29501;DHT22;16450;50.288;10.966;2024-03-06T06:20:53;6.80;99.90
29501;DHT22;16450;50.288;10.966;2024-03-06T06:23:55;6.80;99.90
29501;DHT22;16450;50.288;10.966;2024-03-06T06:26:57;6.80;99.90
29501;DHT22;16450;50.288;10.966;2024-03-06T06:29:59;6.80;99.90
29501;DHT22;16450;50.288;10.966;2024-03-06T06:33:05;6.80;99.90
29501;DHT22;16450;50.288;10.966;2024-03-06T06:36:07;6.80;99.90
29501;DHT22;16450;50.288;10.966;2024-03-06T06:39:09;6.80;99.90
29501;DHT22;16450;50.288;10.966;2024-03-06T06:42:12;6.80;99.90
29501;DHT22;16450;50.288;10.966;2024-03-06T06:45:18;6.80;99.90
29501;DHT22;16450;50.288;10.966;2024-03-06T06:48:20;6.80;99.90
29501;DHT22;16450;50.288;10.966;2024-03-06T06:51:22;6.80;99.90
29501;DHT22;16450;50.288;10.966;2024-03-06T06:54:25;6.90;99.90
29501;DHT22;16450;50.288;10.966;2024-03-06T06:57:27;6.90;99.90
29501;DHT22;16450;50.288;10.966;2024-03-06T07:00:28;6.90;99.90
29501;DHT22;16450;50.288;10.966;2024-03-06T07:03:32;6.90;99.90
29501;DHT22;16450;50.288;10.966;2024-03-06T07:06:34;6.90;99.90
29501;DHT22;16450;50.288;10.966;2024-03-06T07:09:36;6.90;99.90
29501;DHT22;16450;50.288;10.966;2024-03-06T07:12:37;6.90;99.90
29501;DHT22;16450;50.288;10.966;2024-03-06T07:15:39;6.90;99.90
29501;DHT22;16450;50.288;10.966;2024-03-06T07:18:41;7.00;99.90
29501;DHT22;16450;50.288;10.966;2024-03-06T07:21:43;7.00;99.90
29501;DHT22;16450;50.288;10.966;2024-03-06T07:24:45;7.00;99.90
29501;DHT22;16450;50.288;10.966;2024-03-06T07:27:47;7.00;99.90
29501;DHT22;16450;50.288;10.966;2024-03-06T07:30:49;7.10;99.90
29501;DHT22;16450;50.288;10.966;2024-03-06T07:33:51;7.10;99.90
29501;DHT22;16450;50.288;10.966;2024-03-06T07:36:53;7.10;99.90
29501;DHT22;16450;50.288;10.966;2024-03-06T07:39:55;7.10;99.90
29501;DHT22;16450;50.288;10.966;2024-03-06T07:42:57;7.20;99.90
29501;DHT22;16450;50.288;10.966;2024-03-06T07:45:59;7.20;99.90
29501;DHT22;16450;50.288;10.966;2024-03-06T07:49:01;7.20;99.90
29501;DHT22;16450;50.288;10.966;2024-03-06T07:52:04;7.30;99.90
29501;DHT22;16450;50.288;10.966;2024-03-06T07:55:06;7.40;99.90
29501;DHT22;16450;50.288;10.966;2024-03-06T07:58:08;7.40;99.90
29501;DHT22;16450;50.288;10.966;2024-03-06T08:01:11;7.50;99.90
29501;DHT22;16450;50.288;10.966;2024-03-06T08:04:13;7.50;99.90
29501;DHT22;16450;50.288;10.966;2024-03-06T08:07:15;7.60;99.90
29501;DHT22;16450;50.288;10.966;2024-03-06T08:10:17;7.70;99.90
29501;DHT22;16450;50.288;10.966;2024-03-06T08:13:20;7.80;99.90
29501;DHT22;16450;50.288;10.966;2024-03-06T08:16:22;7.80;99.90
29501;DHT22;16450;50.288;10.966;2024-03-06T08:19:24;7.90;99.90
29501;DHT22;16450;50.288;10.966;2024-03-06T08:22:27;8.00;99.90
29501;DHT22;16450;50.288;10.966;2024-03-06T08:25:29;8.00;99.90
29501;DHT22;16450;50.288;10.966;2024-03-06T08:28:34;8.10;99.90
29501;DHT22;16450;50.288;10.966;2024-03-06T08:31:36;8.10;99.90
29501;DHT22;16450;50.288;10.966;2024-03-06T08:34:38;8.10;99.90
29501;DHT22;16450;50.288;10.966;2024-03-06T08:37:41;8.20;99.90
29501;DHT22;16450;50.288;10.966;2024-03-06T08:40:43;8.10;99.90
29501;DHT22;16450;50.288;10.966;2024-03-06T08:43:47;8.10;99.90
29501;DHT22;16450;50.288;10.966;2024-03-06T08:46:49;8.10;99.90
29501;DHT22;16450;50.288;10.966;2024-03-06T08:49:51;8.20;99.90
29501;DHT22;16450;50.288;10.966;2024-03-06T08:52:53;8.30;99.90
29501;DHT22;16450;50.288;10.966;2024-03-06T08:55:55;8.30;99.90
29501;DHT22;16450;50.288;10.966;2024-03-06T08:58:57;8.40;99.90
29501;DHT22;16450;50.288;10.966;2024-03-06T09:01:58;8.40;99.90
29501;DHT22;16450;50.288;10.966;2024-03-06T09:05:13;8.40;99.90
29501;DHT22;16450;50.288;10.966;2024-03-06T09:08:15;8.50;99.90
29501;DHT22;16450;50.288;10.966;2024-03-06T09:11:17;8.40;99.90
29501;DHT22;16450;50.288;10.966;2024-03-06T09:14:19;8.40;99.90
29501;DHT22;16450;50.288;10.966;2024-03-06T09:17:21;8.40;99.90
29501;DHT22;16450;50.288;10.966;2024-03-06T09:20:23;8.40;99.90
29501;DHT22;16450;50.288;10.966;2024-03-06T09:23:27;8.50;99.90
29501;DHT22;16450;50.288;10.966;2024-03-06T09:26:29;8.50;99.90
29501;DHT22;16450;50.288;10.966;2024-03-06T09:29:31;8.60;99.90
29501;DHT22;16450;50.288;10.966;2024-03-06T09:32:32;8.60;99.90
29501;DHT22;16450;50.288;10.966;2024-03-06T09:35:34;8.60;99.90
29501;DHT22;16450;50.288;10.966;2024-03-06T09:38:36;8.70;99.90
29501;DHT22;16450;50.288;10.966;2024-03-06T09:41:41;8.80;99.90
29501;DHT22;16450;50.288;10.966;2024-03-06T09:44:44;8.90;99.90
29501;DHT22;16450;50.288;10.966;2024-03-06T09:47:47;9.10;99.90
29501;DHT22;16450;50.288;10.966;2024-03-06T09:50:53;9.20;99.90
29501;DHT22;16450;50.288;10.966;2024-03-06T09:53:59;9.40;99.90
29501;DHT22;16450;50.288;10.966;2024-03-06T09:57:01;9.60;99.90
29501;DHT22;16450;50.288;10.966;2024-03-06T10:00:04;9.70;99.90
29501;DHT22;16450;50.288;10.966;2024-03-06T10:03:09;9.90;99.90
29501;DHT22;16450;50.288;10.966;2024-03-06T10:06:13;10.10;99.90
29501;DHT22;16450;50.288;10.966;2024-03-06T10:09:19;10.20;99.90
29501;DHT22;16450;50.288;10.966;2024-03-06T10:12:21;10.30;99.90
29501;DHT22;16450;50.288;10.966;2024-03-06T10:15:23;10.30;99.90
29501;DHT22;16450;50.288;10.966;2024-03-06T10:18:29;10.20;99.90
29501;DHT22;16450;50.288;10.966;2024-03-06T10:21:31;10.30;99.90
29501;DHT22;16450;50.288;10.966;2024-03-06T10:24:39;10.30;99.90
29501;DHT22;16450;50.288;10.966;2024-03-06T10:27:41;10.20;99.90
29501;DHT22;16450;50.288;10.966;2024-03-06T10:30:43;10.20;99.90
29501;DHT22;16450;50.288;10.966;2024-03-06T10:33:46;10.30;99.90
29501;DHT22;16450;50.288;10.966;2024-03-06T10:36:56;10.40;99.90
29501;DHT22;16450;50.288;10.966;2024-03-06T10:39:58;10.40;99.90
29501;DHT22;16450;50.288;10.966;2024-03-06T10:43:08;10.50;99.90
29501;DHT22;16450;50.288;10.966;2024-03-06T10:46:11;10.60;99.90
29501;DHT22;16450;50.288;10.966;2024-03-06T10:49:14;10.70;99.90
29501;DHT22;16450;50.288;10.966;2024-03-06T10:52:18;10.80;99.90
29501;DHT22;16450;50.288;10.966;2024-03-06T10:55:21;11.00;99.90
29501;DHT22;16450;50.288;10.966;2024-03-06T10:58:23;11.10;99.90
29501;DHT22;16450;50.288;10.966;2024-03-06T11:01:27;11.20;99.90
29501;DHT22;16450;50.288;10.966;2024-03-06T11:04:34;11.30;99.90
29501;DHT22;16450;50.288;10.966;2024-03-06T11:07:36;11.20;99.90
29501;DHT22;16450;50.288;10.966;2024-03-06T11:10:41;11.10;99.90
29501;DHT22;16450;50.288;10.966;2024-03-06T11:13:44;11.00;99.90
29501;DHT22;16450;50.288;10.966;2024-03-06T11:17:06;10.80;99.90
29501;DHT22;16450;50.288;10.966;2024-03-06T11:20:16;10.70;99.90
29501;DHT22;16450;50.288;10.966;2024-03-06T11:23:18;10.60;99.90
29501;DHT22;16450;50.288;10.966;2024-03-06T11:26:22;10.50;99.90
29501;DHT22;16450;50.288;10.966;2024-03-06T11:29:26;10.40;99.90
29501;DHT22;16450;50.288;10.966;2024-03-06T11:32:28;10.20;99.90
29501;DHT22;16450;50.288;10.966;2024-03-06T11:35:32;10.10;99.90
29501;DHT22;16450;50.288;10.966;2024-03-06T11:38:37;10.00;99.90
29501;DHT22;16450;50.288;10.966;2024-03-06T11:41:48;10.00;99.90
29501;DHT22;16450;50.288;10.966;2024-03-06T11:44:54;9.90;99.90
29501;DHT22;16450;50.288;10.966;2024-03-06T11:48:02;9.90;99.90
29501;DHT22;16450;50.288;10.966;2024-03-06T11:51:04;9.90;99.90
29501;DHT22;16450;50.288;10.966;2024-03-06T11:54:07;9.90;99.90
29501;DHT22;16450;50.288;10.966;2024-03-06T11:57:09;9.80;99.90
29501;DHT22;16450;50.288;10.966;2024-03-06T12:00:13;9.80;99.90
29501;DHT22;16450;50.288;10.966;2024-03-06T12:03:15;9.80;99.90
29501;DHT22;16450;50.288;10.966;2024-03-06T12:06:17;9.80;99.90
29501;DHT22;16450;50.288;10.966;2024-03-06T12:09:21;9.80;99.90
29501;DHT22;16450;50.288;10.966;2024-03-06T12:12:24;9.80;99.90
29501;DHT22;16450;50.288;10.966;2024-03-06T12:15:26;10.00;99.90
29501;DHT22;16450;50.288;10.966;2024-03-06T12:18:27;10.10;99.90
29501;DHT22;16450;50.288;10.966;2024-03-06T12:21:33;10.20;99.90
29501;DHT22;16450;50.288;10.966;2024-03-06T12:24:35;10.30;99.90
29501;DHT22;16450;50.288;10.966;2024-03-06T12:27:37;10.30;99.90
29501;DHT22;16450;50.288;10.966;2024-03-06T12:30:43;10.30;99.90
29501;DHT22;16450;50.288;10.966;2024-03-06T12:33:55;10.40;99.90
29501;DHT22;16450;50.288;10.966;2024-03-06T12:37:10;10.40;99.90
29501;DHT22;16450;50.288;10.966;2024-03-06T12:40:13;10.40;99.90
29501;DHT22;16450;50.288;10.966;2024-03-06T12:43:15;10.50;99.90
29501;DHT22;16450;50.288;10.966;2024-03-06T12:46:17;10.60;99.90
29501;DHT22;16450;50.288;10.966;2024-03-06T12:49:18;10.70;99.90
29501;DHT22;16450;50.288;10.966;2024-03-06T12:52:21;10.70;99.90
29501;DHT22;16450;50.288;10.966;2024-03-06T12:55:23;10.80;99.90
29501;DHT22;16450;50.288;10.966;2024-03-06T12:58:25;10.90;99.90
29501;DHT22;16450;50.288;10.966;2024-03-06T13:01:27;11.00;99.90
29501;DHT22;16450;50.288;10.966;2024-03-06T13:04:29;11.20;99.90
29501;DHT22;16450;50.288;10.966;2024-03-06T13:07:30;11.30;99.90
29501;DHT22;16450;50.288;10.966;2024-03-06T13:10:32;11.40;99.90
29501;DHT22;16450;50.288;10.966;2024-03-06T13:13:34;11.50;99.90
29501;DHT22;16450;50.288;10.966;2024-03-06T13:16:36;11.60;99.90
29501;DHT22;16450;50.288;10.966;2024-03-06T13:19:38;11.60;99.90
29501;DHT22;16450;50.288;10.966;2024-03-06T13:22:40;11.70;99.90
29501;DHT22;16450;50.288;10.966;2024-03-06T13:25:42;11.60;99.90
29501;DHT22;16450;50.288;10.966;2024-03-06T13:28:45;11.50;99.90
29501;DHT22;16450;50.288;10.966;2024-03-06T13:31:47;11.50;99.90
29501;DHT22;16450;50.288;10.966;2024-03-06T13:34:50;11.30;99.90
29501;DHT22;16450;50.288;10.966;2024-03-06T13:37:52;11.30;99.90
29501;DHT22;16450;50.288;10.966;2024-03-06T13:40:55;11.20;99.90
29501;DHT22;16450;50.288;10.966;2024-03-06T13:43:57;11.10;99.90
29501;DHT22;16450;50.288;10.966;2024-03-06T13:46:59;10.90;99.90
29501;DHT22;16450;50.288;10.966;2024-03-06T13:50:01;11.00;99.90
29501;DHT22;16450;50.288;10.966;2024-03-06T13:53:03;10.90;99.90
29501;DHT22;16450;50.288;10.966;2024-03-06T13:56:05;10.80;99.90
29501;DHT22;16450;50.288;10.966;2024-03-06T13:59:07;10.70;99.90
29501;DHT22;16450;50.288;10.966;2024-03-06T14:02:09;10.70;99.90
29501;DHT22;16450;50.288;10.966;2024-03-06T14:05:11;10.60;99.90
29501;DHT22;16450;50.288;10.966;2024-03-06T14:08:14;10.60;99.90
29501;DHT22;16450;50.288;10.966;2024-03-06T14:11:17;10.60;99.90
29501;DHT22;16450;50.288;10.966;2024-03-06T14:14:20;10.60;99.90
29501;DHT22;16450;50.288;10.966;2024-03-06T14:17:22;10.60;99.90
29501;DHT22;16450;50.288;10.966;2024-03-06T14:20:26;10.70;99.90
29501;DHT22;16450;50.288;10.966;2024-03-06T14:23:28;10.60;99.90
29501;DHT22;16450;50.288;10.966;2024-03-06T14:26:33;10.70;99.90
29501;DHT22;16450;50.288;10.966;2024-03-06T14:29:35;10.70;99.90
29501;DHT22;16450;50.288;10.966;2024-03-06T14:32:37;10.70;99.90
29501;DHT22;16450;50.288;10.966;2024-03-06T14:35:41;10.80;99.90
29501;DHT22;16450;50.288;10.966;2024-03-06T14:38:43;10.80;99.90
29501;DHT22;16450;50.288;10.966;2024-03-06T14:41:48;10.80;99.90
29501;DHT22;16450;50.288;10.966;2024-03-06T14:44:50;10.90;99.90
29501;DHT22;16450;50.288;10.966;2024-03-06T14:47:52;10.90;99.90
29501;DHT22;16450;50.288;10.966;2024-03-06T14:50:54;10.90;99.90
29501;DHT22;16450;50.288;10.966;2024-03-06T14:53:57;10.90;99.90
29501;DHT22;16450;50.288;10.966;2024-03-06T14:56:59;11.00;99.90
29501;DHT22;16450;50.288;10.966;2024-03-06T15:00:01;11.00;99.90
29501;DHT22;16450;50.288;10.966;2024-03-06T15:03:03;10.90;99.90
29501;DHT22;16450;50.288;10.966;2024-03-06T15:06:06;10.90;99.90
29501;DHT22;16450;50.288;10.966;2024-03-06T15:09:09;10.80;99.90
29501;DHT22;16450;50.288;10.966;2024-03-06T15:12:17;10.70;99.90
29501;DHT22;16450;50.288;10.966;2024-03-06T15:15:19;10.60;99.90
29501;DHT22;16450;50.288;10.966;2024-03-06T15:18:21;10.60;99.90
29501;DHT22;16450;50.288;10.966;2024-03-06T15:21:23;10.50;99.90
29501;DHT22;16450;50.288;10.966;2024-03-06T15:24:25;10.40;99.90
29501;DHT22;16450;50.288;10.966;2024-03-06T15:27:27;10.40;99.90
29501;DHT22;16450;50.288;10.966;2024-03-06T15:30:29;10.30;99.90
29501;DHT22;16450;50.288;10.966;2024-03-06T15:33:33;10.30;99.90
29501;DHT22;16450;50.288;10.966;2024-03-06T15:36:35;10.30;99.90
29501;DHT22;16450;50.288;10.966;2024-03-06T15:39:38;10.30;99.90
29501;DHT22;16450;50.288;10.966;2024-03-06T15:42:40;10.30;99.90
29501;DHT22;16450;50.288;10.966;2024-03-06T15:45:42;10.30;99.90
29501;DHT22;16450;50.288;10.966;2024-03-06T15:48:44;10.40;99.90
29501;DHT22;16450;50.288;10.966;2024-03-06T15:51:46;10.40;99.90
29501;DHT22;16450;50.288;10.966;2024-03-06T15:54:48;10.40;99.90
29501;DHT22;16450;50.288;10.966;2024-03-06T15:57:50;10.40;99.90
29501;DHT22;16450;50.288;10.966;2024-03-06T16:00:51;10.40;99.90
29501;DHT22;16450;50.288;10.966;2024-03-06T16:04:01;10.40;99.90
29501;DHT22;16450;50.288;10.966;2024-03-06T16:07:03;10.30;99.90
29501;DHT22;16450;50.288;10.966;2024-03-06T16:10:06;10.30;99.90
29501;DHT22;16450;50.288;10.966;2024-03-06T16:13:08;10.20;99.90
29501;DHT22;16450;50.288;10.966;2024-03-06T16:16:09;10.20;99.90
29501;DHT22;16450;50.288;10.966;2024-03-06T16:19:11;10.10;99.90
29501;DHT22;16450;50.288;10.966;2024-03-06T16:22:13;10.10;99.90
29501;DHT22;16450;50.288;10.966;2024-03-06T16:25:15;10.00;99.90
29501;DHT22;16450;50.288;10.966;2024-03-06T16:28:18;9.90;99.90
29501;DHT22;16450;50.288;10.966;2024-03-06T16:31:20;9.90;99.90
29501;DHT22;16450;50.288;10.966;2024-03-06T16:34:22;9.80;99.90
29501;DHT22;16450;50.288;10.966;2024-03-06T16:37:25;9.70;99.90
29501;DHT22;16450;50.288;10.966;2024-03-06T16:40:27;9.60;99.90
29501;DHT22;16450;50.288;10.966;2024-03-06T16:43:29;9.60;99.90
29501;DHT22;16450;50.288;10.966;2024-03-06T16:46:31;9.50;99.90
29501;DHT22;16450;50.288;10.966;2024-03-06T16:49:33;9.40;99.90
29501;DHT22;16450;50.288;10.966;2024-03-06T16:52:35;9.30;99.90
29501;DHT22;16450;50.288;10.966;2024-03-06T16:55:37;9.30;99.90
29501;DHT22;16450;50.288;10.966;2024-03-06T16:58:39;9.20;99.90
29501;DHT22;16450;50.288;10.966;2024-03-06T17:01:41;9.10;99.90
29501;DHT22;16450;50.288;10.966;2024-03-06T17:04:43;9.00;99.90
29501;DHT22;16450;50.288;10.966;2024-03-06T17:07:45;8.90;99.90
29501;DHT22;16450;50.288;10.966;2024-03-06T17:10:48;8.80;99.90
29501;DHT22;16450;50.288;10.966;2024-03-06T17:13:50;8.80;99.90
29501;DHT22;16450;50.288;10.966;2024-03-06T17:16:52;8.80;99.90
29501;DHT22;16450;50.288;10.966;2024-03-06T17:19:54;8.70;99.90
29501;DHT22;16450;50.288;10.966;2024-03-06T17:22:56;8.70;99.90
29501;DHT22;16450;50.288;10.966;2024-03-06T17:26:00;8.70;99.90
29501;DHT22;16450;50.288;10.966;2024-03-06T17:29:01;8.60;99.90
29501;DHT22;16450;50.288;10.966;2024-03-06T17:32:04;8.70;99.90
29501;DHT22;16450;50.288;10.966;2024-03-06T17:35:06;8.70;99.90
29501;DHT22;16450;50.288;10.966;2024-03-06T17:38:10;8.60;99.90
29501;DHT22;16450;50.288;10.966;2024-03-06T17:41:13;8.60;99.90
29501;DHT22;16450;50.288;10.966;2024-03-06T17:44:15;8.50;99.90
29501;DHT22;16450;50.288;10.966;2024-03-06T17:47:17;8.50;99.90
29501;DHT22;16450;50.288;10.966;2024-03-06T17:50:19;8.40;99.90
29501;DHT22;16450;50.288;10.966;2024-03-06T17:53:21;8.30;99.90
29501;DHT22;16450;50.288;10.966;2024-03-06T17:56:24;8.20;99.90
29501;DHT22;16450;50.288;10.966;2024-03-06T17:59:26;8.20;99.90
29501;DHT22;16450;50.288;10.966;2024-03-06T18:02:28;8.10;99.90
29501;DHT22;16450;50.288;10.966;2024-03-06T18:05:30;8.00;99.90
29501;DHT22;16450;50.288;10.966;2024-03-06T18:08:32;7.90;99.90
29501;DHT22;16450;50.288;10.966;2024-03-06T18:11:35;7.80;99.90
29501;DHT22;16450;50.288;10.966;2024-03-06T18:14:37;7.70;99.90
29501;DHT22;16450;50.288;10.966;2024-03-06T18:17:38;7.70;99.90
29501;DHT22;16450;50.288;10.966;2024-03-06T18:20:40;7.60;99.90
29501;DHT22;16450;50.288;10.966;2024-03-06T18:23:42;7.50;99.90
29501;DHT22;16450;50.288;10.966;2024-03-06T18:26:44;7.50;99.90
29501;DHT22;16450;50.288;10.966;2024-03-06T18:29:47;7.50;99.90
29501;DHT22;16450;50.288;10.966;2024-03-06T18:32:49;7.40;99.90
29501;DHT22;16450;50.288;10.966;2024-03-06T18:35:51;7.40;99.90
29501;DHT22;16450;50.288;10.966;2024-03-06T18:38:53;7.40;99.90
29501;DHT22;16450;50.288;10.966;2024-03-06T18:41:55;7.30;99.90
29501;DHT22;16450;50.288;10.966;2024-03-06T18:45:12;7.30;99.90
29501;DHT22;16450;50.288;10.966;2024-03-06T18:48:15;7.30;99.90
29501;DHT22;16450;50.288;10.966;2024-03-06T18:51:17;7.30;99.90
29501;DHT22;16450;50.288;10.966;2024-03-06T18:54:20;7.20;99.90
29501;DHT22;16450;50.288;10.966;2024-03-06T18:57:22;7.20;99.90
29501;DHT22;16450;50.288;10.966;2024-03-06T19:00:24;7.20;99.90
29501;DHT22;16450;50.288;10.966;2024-03-06T19:03:26;7.10;99.90
29501;DHT22;16450;50.288;10.966;2024-03-06T19:06:28;7.00;99.90
29501;DHT22;16450;50.288;10.966;2024-03-06T19:09:29;7.00;99.90
29501;DHT22;16450;50.288;10.966;2024-03-06T19:12:31;6.90;99.90
29501;DHT22;16450;50.288;10.966;2024-03-06T19:15:33;6.90;99.90